createdAt,value
2022-08-03T00:00:29.041Z,2.97
2022-08-03T00:05:48.368Z,2.97
2022-08-03T00:10:55.867Z,2.98
2022-08-03T00:16:03.412Z,2.98
2022-08-03T00:21:10.888Z,2.97
2022-08-03T00:26:18.459Z,2.97
2022-08-03T00:31:25.901Z,2.97
2022-08-03T00:36:32.218Z,2.97
2022-08-03T00:41:41.207Z,2.97
2022-08-03T00:46:48.320Z,2.96
2022-08-03T00:51:55.763Z,2.98
2022-08-03T00:57:02.371Z,2.97
2022-08-03T01:02:10.291Z,2.97
2022-08-03T01:07:17.364Z,2.98
2022-08-03T01:12:25.428Z,2.96
2022-08-03T01:17:32.447Z,2.97
2022-08-03T01:22:40.219Z,2.96
2022-08-03T01:27:47.983Z,2.96
2022-08-03T01:32:54.896Z,2.97
2022-08-03T01:38:02.461Z,2.97
2022-08-03T01:43:11.353Z,2.96
2022-08-03T01:48:19.660Z,2.97
2022-08-03T01:53:28.273Z,2.97
2022-08-03T01:58:35.135Z,2.97
2022-08-03T02:03:42.905Z,2.97
2022-08-03T02:08:50.134Z,2.97
2022-08-03T02:13:56.728Z,2.96
2022-08-03T02:19:04.531Z,2.97
2022-08-03T02:24:11.729Z,2.97
2022-08-03T02:29:19.594Z,2.96
2022-08-03T02:34:27.041Z,2.96
2022-08-03T02:39:34.822Z,2.97
2022-08-03T02:44:41.841Z,2.97
2022-08-03T02:49:48.355Z,2.97
2022-08-03T02:54:56.213Z,2.97
2022-08-03T03:00:04.052Z,2.96
2022-08-03T03:05:11.274Z,2.96
2022-08-03T03:10:18.403Z,2.96
2022-08-03T03:15:31.409Z,2.96
2022-08-03T03:20:38.359Z,2.96
2022-08-03T03:25:45.908Z,2.96
2022-08-03T03:30:53.711Z,2.96
2022-08-03T03:36:01.407Z,2.97
2022-08-03T03:41:08.061Z,2.96
2022-08-03T03:46:16.009Z,2.97
2022-08-03T03:51:23.941Z,2.96
2022-08-03T03:56:30.968Z,2.97
2022-08-03T04:01:38.800Z,2.97
2022-08-03T04:06:51.093Z,2.97
2022-08-03T04:11:59.191Z,2.97
2022-08-03T04:17:07.280Z,2.98
2022-08-03T04:22:15.210Z,2.98
2022-08-03T04:27:23.908Z,2.99
2022-08-03T04:32:31.924Z,2.98
2022-08-03T04:37:40.141Z,2.98
2022-08-03T04:42:47.250Z,3.0
2022-08-03T04:47:54.874Z,2.98
2022-08-03T04:53:01.646Z,2.98
2022-08-03T04:58:11.277Z,2.99
2022-08-03T05:03:18.605Z,2.99
2022-08-03T05:08:25.382Z,2.98
2022-08-03T05:13:33.013Z,2.99
2022-08-03T05:18:39.602Z,2.98
2022-08-03T05:23:46.772Z,2.98
2022-08-03T05:28:55.254Z,3.0
2022-08-03T05:35:34.281Z,3.0
2022-08-03T05:40:40.660Z,3.0
2022-08-03T05:45:49.085Z,3.01
2022-08-03T05:50:56.249Z,3.01
2022-08-03T05:56:03.460Z,3.0
2022-08-03T06:01:11.573Z,3.01
2022-08-03T06:06:19.096Z,3.01
2022-08-03T06:11:26.304Z,3.0
2022-08-03T06:16:34.139Z,3.0
2022-08-03T06:21:41.367Z,3.01
2022-08-03T06:26:49.646Z,3.0
2022-08-03T06:31:57.304Z,3.0
2022-08-03T06:37:05.336Z,3.01
2022-08-03T06:42:13.410Z,3.0
2022-08-03T06:47:21.730Z,3.0
2022-08-03T06:52:28.999Z,3.01
2022-08-03T06:57:36.793Z,3.01
2022-08-03T07:02:44.956Z,3.01
2022-08-03T07:07:52.733Z,3.0
2022-08-03T07:13:00.876Z,3.01
2022-08-03T07:18:08.848Z,3.0
2022-08-03T07:23:16.721Z,3.0
2022-08-03T07:28:25.688Z,3.01
2022-08-03T07:34:13.390Z,3.0
2022-08-03T07:39:19.915Z,3.0
2022-08-03T07:44:28.350Z,2.99
2022-08-03T07:49:35.586Z,3.0
2022-08-03T07:54:44.564Z,3.0
2022-08-03T07:59:54.253Z,2.99
2022-08-03T08:05:02.880Z,3.0
2022-08-03T08:10:11.281Z,3.0
2022-08-03T08:15:18.613Z,3.01
2022-08-03T08:20:25.873Z,3.0
2022-08-03T08:25:34.074Z,3.0
2022-08-03T08:30:41.956Z,3.01
2022-08-03T08:35:51.116Z,3.01
2022-08-03T08:40:58.437Z,3.0
2022-08-03T08:46:05.932Z,3.0
2022-08-03T08:51:13.848Z,3.01
2022-08-03T08:56:22.160Z,3.0
2022-08-03T09:01:29.837Z,3.01
2022-08-03T09:06:38.308Z,3.01
2022-08-03T09:11:45.706Z,3.01
2022-08-03T09:16:52.052Z,3.01
2022-08-03T09:21:59.429Z,3.01
2022-08-03T09:27:06.968Z,3.02
2022-08-03T09:32:23.126Z,3.0
2022-08-03T09:37:31.071Z,3.01
2022-08-03T09:42:37.732Z,3.01
2022-08-03T09:47:44.841Z,3.0
2022-08-03T09:52:56.335Z,3.01
2022-08-03T09:58:03.768Z,3.01
2022-08-03T10:03:11.609Z,3.01
2022-08-03T10:08:19.840Z,3.01
2022-08-03T10:13:27.504Z,3.0
2022-08-03T10:18:34.667Z,3.01
2022-08-03T10:23:43.053Z,3.0
2022-08-03T10:28:51.006Z,3.01
2022-08-03T10:33:58.620Z,3.01
2022-08-03T10:39:05.917Z,3.01
2022-08-03T10:44:13.018Z,3.01
2022-08-03T10:49:20.245Z,3.01
2022-08-03T10:54:28.012Z,3.01
2022-08-03T10:59:35.276Z,3.01
2022-08-03T11:04:43.611Z,3.0
2022-08-03T11:09:51.576Z,3.0
2022-08-03T11:14:58.971Z,3.01
2022-08-03T11:20:07.114Z,3.01
2022-08-03T11:25:13.819Z,3.01
2022-08-03T11:30:21.658Z,3.02
2022-08-03T11:35:28.865Z,3.01
2022-08-03T11:40:36.032Z,3.02
2022-08-03T11:45:42.614Z,3.01
2022-08-03T11:50:51.413Z,3.02
2022-08-03T11:55:59.104Z,3.01
2022-08-03T12:01:06.550Z,3.01
2022-08-03T12:06:13.924Z,3.01
2022-08-03T12:11:20.537Z,3.02
2022-08-03T12:16:27.961Z,3.02
2022-08-03T12:21:36.719Z,3.01
2022-08-03T12:27:34.676Z,3.02
2022-08-03T12:32:41.206Z,3.02
2022-08-03T12:37:49.657Z,3.01
2022-08-03T12:42:56.859Z,3.02
2022-08-03T12:48:05.048Z,3.01
2022-08-03T12:53:12.540Z,3.01
2022-08-03T12:58:21.057Z,3.01
2022-08-03T13:03:29.698Z,3.01
2022-08-03T13:08:38.143Z,3.01
2022-08-03T13:13:45.816Z,3.01
2022-08-03T13:18:54.498Z,3.02
2022-08-03T13:24:02.378Z,3.01
2022-08-03T13:29:08.690Z,3.02
2022-08-03T13:34:15.888Z,3.01
2022-08-03T13:39:24.334Z,3.02
2022-08-03T13:44:31.941Z,3.02
2022-08-03T13:49:39.448Z,3.02
2022-08-03T13:54:46.560Z,3.03
2022-08-03T13:59:53.855Z,3.03
2022-08-03T14:05:02.080Z,3.02
2022-08-03T14:10:10.343Z,3.01
2022-08-03T14:15:18.308Z,3.01
2022-08-03T14:20:26.962Z,3.02
2022-08-03T14:25:34.695Z,3.01
2022-08-03T14:30:41.495Z,3.01
2022-08-03T14:35:48.965Z,3.02
2022-08-03T14:40:56.962Z,3.02
2022-08-03T14:46:04.883Z,3.02
2022-08-03T14:51:13.091Z,3.02
2022-08-03T14:56:21.213Z,3.02
2022-08-03T15:01:44.420Z,3.02
2022-08-03T15:06:52.361Z,3.01
2022-08-03T15:12:00.207Z,3.02
2022-08-03T15:17:14.706Z,3.01
2022-08-03T15:22:23.448Z,3.02
2022-08-03T15:27:30.782Z,3.02
2022-08-03T15:32:37.415Z,3.02
2022-08-03T15:38:01.142Z,3.02
2022-08-03T15:43:08.847Z,3.02
2022-08-03T15:48:16.887Z,3.02
2022-08-03T15:53:24.380Z,3.01
2022-08-03T15:58:30.654Z,3.02
2022-08-03T16:03:38.007Z,3.02
2022-08-03T16:08:45.059Z,3.01
2022-08-03T16:13:53.212Z,3.03
2022-08-03T16:19:00.090Z,3.01
2022-08-03T16:24:08.179Z,3.02
2022-08-03T16:29:16.246Z,3.02
2022-08-03T16:34:22.932Z,3.01
2022-08-03T16:39:31.172Z,3.02
2022-08-03T16:44:39.855Z,3.02
2022-08-03T16:49:47.470Z,3.01
2022-08-03T16:54:53.661Z,3.01
2022-08-03T17:00:00.215Z,3.01
2022-08-03T17:05:07.414Z,3.01
2022-08-03T17:10:14.871Z,3.01
2022-08-03T17:15:23.434Z,3.02
2022-08-03T17:20:30.961Z,3.02
2022-08-03T17:25:37.496Z,3.01
2022-08-03T17:30:45.966Z,3.01
2022-08-03T17:35:53.823Z,3.01
2022-08-03T17:41:01.716Z,3.01
2022-08-03T17:46:09.088Z,3.01
2022-08-03T17:51:16.794Z,3.01
2022-08-03T17:56:23.896Z,3.01
2022-08-03T18:01:31.876Z,3.01
2022-08-03T18:06:39.447Z,3.0
2022-08-03T18:11:46.857Z,3.0
2022-08-03T18:16:54.219Z,3.02
2022-08-03T18:22:01.475Z,3.01
2022-08-03T18:27:10.043Z,3.01
2022-08-03T18:32:17.489Z,3.0
2022-08-03T18:37:24.125Z,3.01
2022-08-03T18:42:31.708Z,2.99
2022-08-03T18:47:37.828Z,3.0
2022-08-03T18:52:46.023Z,2.99
2022-08-03T18:57:53.535Z,2.99
2022-08-03T19:03:01.274Z,3.0
2022-08-03T19:08:07.934Z,3.0
2022-08-03T19:13:15.123Z,2.99
2022-08-03T19:18:22.996Z,2.98
2022-08-03T19:23:29.990Z,3.0
2022-08-03T19:28:37.689Z,2.99
2022-08-03T19:33:45.181Z,3.0
2022-08-03T19:38:52.321Z,2.98
2022-08-03T19:43:59.545Z,2.99
2022-08-03T19:49:06.778Z,2.99
2022-08-03T19:54:14.266Z,2.99
2022-08-03T19:59:22.970Z,3.0
2022-08-03T20:04:30.163Z,2.98
2022-08-03T20:09:37.511Z,2.99
2022-08-03T20:14:46.746Z,2.99
2022-08-03T20:19:54.980Z,2.99
2022-08-03T20:25:03.280Z,2.99
2022-08-03T20:30:11.858Z,2.98
2022-08-03T20:35:20.978Z,2.99
2022-08-03T20:40:29.017Z,2.98
2022-08-03T20:45:36.478Z,2.98
2022-08-03T20:50:44.483Z,2.98
2022-08-03T20:55:52.284Z,2.99
2022-08-03T21:01:00.082Z,2.98
2022-08-03T21:06:07.114Z,2.98
2022-08-03T21:11:15.676Z,2.98
2022-08-03T21:16:22.634Z,2.99
2022-08-03T21:21:30.042Z,2.98
2022-08-03T21:26:37.598Z,2.98
2022-08-03T21:31:44.647Z,2.98
2022-08-03T21:36:52.086Z,2.98
2022-08-03T21:42:00.410Z,2.98
2022-08-03T21:47:10.505Z,2.98
2022-08-03T21:52:18.731Z,2.97
2022-08-03T21:57:27.146Z,2.98
2022-08-03T22:02:35.463Z,2.98
2022-08-03T22:07:41.660Z,2.98
2022-08-03T22:12:49.462Z,2.97
2022-08-03T22:17:56.698Z,2.97
2022-08-03T22:23:04.413Z,2.97
2022-08-03T22:28:12.488Z,2.97
2022-08-03T22:33:20.425Z,2.98
2022-08-03T22:39:05.816Z,2.97
2022-08-03T22:44:13.492Z,2.97
2022-08-03T22:49:22.388Z,2.97
2022-08-03T22:54:31.283Z,2.98
2022-08-03T22:59:39.101Z,2.98
2022-08-03T23:04:46.434Z,2.97
2022-08-03T23:09:53.957Z,2.97
2022-08-03T23:15:00.977Z,2.97
2022-08-03T23:20:08.745Z,2.98
2022-08-03T23:25:15.101Z,2.97
2022-08-03T23:30:22.938Z,2.97
2022-08-03T23:35:31.842Z,2.98
2022-08-03T23:40:38.616Z,2.98
2022-08-03T23:45:46.259Z,2.98
2022-08-03T23:50:54.238Z,2.97
2022-08-03T23:56:02.007Z,2.97
